If you wish to contribute or participate in the discussions about articles you are invited to join SKYbrary as a registered user

 Actions

Annecy-Haute-Savoie-Mont Blanc Airport

From SKYbrary Wiki

LFLP
Airport
ICAO: LFLP – IATA: NCY
Summary
Name Annecy-Haute-Savoie-Mont Blanc Airport
Region Europe
Territory France FR.gif
Location , Rhone-Alpes
Serving Annecy
Elevation 463.601 m
1,521 ft
1,521 ft463.601 m
Type medium airport
Coordinates 45° 55' 45.24" N, 6° 5' 55.55" E
Runways
Designator Length Width Surface ROPS
4/22 1630 m5,347.769 ft
30 m98.425 ft
ASP yes/yes


METAR
Observation LFLP 161400Z AUTO 25005KT 220V300 9999 OVC052 11/07 Q1019 NOSIG
Station ANNECY/MEYTHET
Date/Time 16 April 2019 14:00:00
Wind direction 250°
Wind speed 05 kts
Lowest cloud amount overcast
Temperature 11°C
Dew point 7°C
Humidity 76%
QNH 1019 hPa
Weather condition n/a